sensor_id;sensor_type;location;lat;lon;timestamp;P1;durP1;ratioP1;P2;durP2;ratioP2
22030;SDS011;11179;52.106;21.024;2023-08-12T00:02:32;10.40;;;4.50;;
22030;SDS011;11179;52.106;21.024;2023-08-12T00:04:57;12.10;;;4.60;;
22030;SDS011;11179;52.106;21.024;2023-08-12T00:07:22;8.77;;;4.30;;
22030;SDS011;11179;52.106;21.024;2023-08-12T00:09:48;11.43;;;4.87;;
22030;SDS011;11179;52.106;21.024;2023-08-12T00:12:14;8.70;;;3.97;;
22030;SDS011;11179;52.106;21.024;2023-08-12T00:14:40;8.90;;;4.10;;
22030;SDS011;11179;52.106;21.024;2023-08-12T00:17:05;7.20;;;4.30;;
22030;SDS011;11179;52.106;21.024;2023-08-12T00:19:30;9.13;;;4.50;;
22030;SDS011;11179;52.106;21.024;2023-08-12T00:21:55;11.37;;;4.27;;
22030;SDS011;11179;52.106;21.024;2023-08-12T00:24:21;21.03;;;4.33;;
22030;SDS011;11179;52.106;21.024;2023-08-12T00:26:46;10.20;;;4.20;;
22030;SDS011;11179;52.106;21.024;2023-08-12T00:29:11;11.73;;;4.33;;
22030;SDS011;11179;52.106;21.024;2023-08-12T00:31:37;9.00;;;4.13;;
22030;SDS011;11179;52.106;21.024;2023-08-12T00:34:02;11.00;;;4.20;;
22030;SDS011;11179;52.106;21.024;2023-08-12T00:36:27;7.33;;;3.93;;
22030;SDS011;11179;52.106;21.024;2023-08-12T00:38:53;11.83;;;4.40;;
22030;SDS011;11179;52.106;21.024;2023-08-12T00:41:18;11.47;;;4.67;;
22030;SDS011;11179;52.106;21.024;2023-08-12T00:43:43;11.73;;;4.00;;
22030;SDS011;11179;52.106;21.024;2023-08-12T00:46:09;9.00;;;4.97;;
22030;SDS011;11179;52.106;21.024;2023-08-12T00:48:34;10.90;;;4.53;;
22030;SDS011;11179;52.106;21.024;2023-08-12T00:50:59;9.13;;;3.90;;
22030;SDS011;11179;52.106;21.024;2023-08-12T00:53:26;10.00;;;4.00;;
22030;SDS011;11179;52.106;21.024;2023-08-12T00:55:51;12.07;;;4.20;;
22030;SDS011;11179;52.106;21.024;2023-08-12T00:58:17;9.87;;;4.13;;
22030;SDS011;11179;52.106;21.024;2023-08-12T01:00:42;11.50;;;4.23;;
22030;SDS011;11179;52.106;21.024;2023-08-12T01:03:07;11.00;;;4.80;;
22030;SDS011;11179;52.106;21.024;2023-08-12T01:05:33;10.43;;;4.40;;
22030;SDS011;11179;52.106;21.024;2023-08-12T01:07:58;15.27;;;5.17;;
22030;SDS011;11179;52.106;21.024;2023-08-12T01:10:24;12.23;;;4.17;;
22030;SDS011;11179;52.106;21.024;2023-08-12T01:12:59;9.63;;;4.20;;
22030;SDS011;11179;52.106;21.024;2023-08-12T01:15:34;10.93;;;4.57;;
22030;SDS011;11179;52.106;21.024;2023-08-12T01:18:01;16.40;;;5.77;;
22030;SDS011;11179;52.106;21.024;2023-08-12T01:20:27;10.90;;;4.10;;
22030;SDS011;11179;52.106;21.024;2023-08-12T01:23:07;14.90;;;5.07;;
22030;SDS011;11179;52.106;21.024;2023-08-12T01:25:33;12.50;;;5.50;;
22030;SDS011;11179;52.106;21.024;2023-08-12T01:27:58;10.20;;;4.57;;
22030;SDS011;11179;52.106;21.024;2023-08-12T01:30:24;12.93;;;5.47;;
22030;SDS011;11179;52.106;21.024;2023-08-12T01:33:12;9.57;;;4.50;;
22030;SDS011;11179;52.106;21.024;2023-08-12T01:35:40;14.03;;;4.70;;
22030;SDS011;11179;52.106;21.024;2023-08-12T01:38:09;14.67;;;5.00;;
22030;SDS011;11179;52.106;21.024;2023-08-12T01:40:35;14.83;;;5.37;;
22030;SDS011;11179;52.106;21.024;2023-08-12T01:43:02;14.87;;;5.43;;
22030;SDS011;11179;52.106;21.024;2023-08-12T01:45:30;16.17;;;5.40;;
22030;SDS011;11179;52.106;21.024;2023-08-12T01:47:58;12.07;;;5.07;;
22030;SDS011;11179;52.106;21.024;2023-08-12T01:50:23;12.53;;;4.57;;
22030;SDS011;11179;52.106;21.024;2023-08-12T01:52:50;15.90;;;6.00;;
22030;SDS011;11179;52.106;21.024;2023-08-12T01:55:15;13.00;;;5.10;;
22030;SDS011;11179;52.106;21.024;2023-08-12T01:57:41;11.73;;;5.60;;
22030;SDS011;11179;52.106;21.024;2023-08-12T02:00:06;13.43;;;5.70;;
22030;SDS011;11179;52.106;21.024;2023-08-12T02:02:32;14.60;;;5.63;;
22030;SDS011;11179;52.106;21.024;2023-08-12T02:04:57;15.90;;;5.03;;
22030;SDS011;11179;52.106;21.024;2023-08-12T02:07:22;19.80;;;5.93;;
22030;SDS011;11179;52.106;21.024;2023-08-12T02:09:48;16.30;;;6.10;;
22030;SDS011;11179;52.106;21.024;2023-08-12T02:12:13;19.63;;;5.50;;
22030;SDS011;11179;52.106;21.024;2023-08-12T02:14:39;15.87;;;5.80;;
22030;SDS011;11179;52.106;21.024;2023-08-12T02:17:04;15.17;;;6.17;;
22030;SDS011;11179;52.106;21.024;2023-08-12T02:19:32;11.50;;;5.40;;
22030;SDS011;11179;52.106;21.024;2023-08-12T02:21:58;12.60;;;5.20;;
22030;SDS011;11179;52.106;21.024;2023-08-12T02:24:24;23.73;;;6.80;;
22030;SDS011;11179;52.106;21.024;2023-08-12T02:26:49;12.77;;;5.67;;
22030;SDS011;11179;52.106;21.024;2023-08-12T02:29:15;17.53;;;6.30;;
22030;SDS011;11179;52.106;21.024;2023-08-12T02:31:40;16.50;;;5.83;;
22030;SDS011;11179;52.106;21.024;2023-08-12T02:34:05;15.50;;;5.43;;
22030;SDS011;11179;52.106;21.024;2023-08-12T02:36:31;12.07;;;5.30;;
22030;SDS011;11179;52.106;21.024;2023-08-12T02:38:56;14.40;;;5.83;;
22030;SDS011;11179;52.106;21.024;2023-08-12T02:41:21;12.47;;;5.10;;
22030;SDS011;11179;52.106;21.024;2023-08-12T02:43:47;12.33;;;5.30;;
22030;SDS011;11179;52.106;21.024;2023-08-12T02:46:12;9.43;;;5.40;;
22030;SDS011;11179;52.106;21.024;2023-08-12T02:48:40;19.23;;;6.23;;
22030;SDS011;11179;52.106;21.024;2023-08-12T02:51:05;12.13;;;5.50;;
22030;SDS011;11179;52.106;21.024;2023-08-12T02:53:30;25.43;;;5.77;;
22030;SDS011;11179;52.106;21.024;2023-08-12T02:55:56;16.50;;;6.27;;
22030;SDS011;11179;52.106;21.024;2023-08-12T02:58:21;12.47;;;5.30;;
22030;SDS011;11179;52.106;21.024;2023-08-12T03:00:46;15.70;;;5.50;;
22030;SDS011;11179;52.106;21.024;2023-08-12T03:03:12;10.70;;;5.10;;
22030;SDS011;11179;52.106;21.024;2023-08-12T03:05:37;11.53;;;5.20;;
22030;SDS011;11179;52.106;21.024;2023-08-12T03:08:02;12.93;;;5.17;;
22030;SDS011;11179;52.106;21.024;2023-08-12T03:10:29;13.10;;;6.00;;
22030;SDS011;11179;52.106;21.024;2023-08-12T03:12:54;13.13;;;6.00;;
22030;SDS011;11179;52.106;21.024;2023-08-12T03:15:19;13.60;;;5.50;;
22030;SDS011;11179;52.106;21.024;2023-08-12T03:17:45;12.53;;;5.93;;
22030;SDS011;11179;52.106;21.024;2023-08-12T03:20:10;11.53;;;5.70;;
22030;SDS011;11179;52.106;21.024;2023-08-12T03:22:39;15.03;;;6.00;;
22030;SDS011;11179;52.106;21.024;2023-08-12T03:25:04;12.33;;;5.63;;
22030;SDS011;11179;52.106;21.024;2023-08-12T03:27:30;10.93;;;5.57;;
22030;SDS011;11179;52.106;21.024;2023-08-12T03:29:56;13.00;;;5.43;;
22030;SDS011;11179;52.106;21.024;2023-08-12T03:32:21;11.83;;;5.40;;
22030;SDS011;11179;52.106;21.024;2023-08-12T03:34:47;11.27;;;5.33;;
22030;SDS011;11179;52.106;21.024;2023-08-12T03:37:12;10.17;;;5.77;;
22030;SDS011;11179;52.106;21.024;2023-08-12T03:39:37;17.90;;;6.90;;
22030;SDS011;11179;52.106;21.024;2023-08-12T03:42:02;10.90;;;5.33;;
22030;SDS011;11179;52.106;21.024;2023-08-12T03:44:28;10.80;;;5.73;;
22030;SDS011;11179;52.106;21.024;2023-08-12T03:46:53;11.27;;;5.60;;
22030;SDS011;11179;52.106;21.024;2023-08-12T03:49:18;25.40;;;6.23;;
22030;SDS011;11179;52.106;21.024;2023-08-12T03:51:44;12.37;;;5.83;;
22030;SDS011;11179;52.106;21.024;2023-08-12T03:54:09;11.57;;;5.90;;
22030;SDS011;11179;52.106;21.024;2023-08-12T03:56:34;13.37;;;6.47;;
22030;SDS011;11179;52.106;21.024;2023-08-12T03:58:59;12.60;;;5.93;;
22030;SDS011;11179;52.106;21.024;2023-08-12T04:01:25;11.93;;;5.53;;
22030;SDS011;11179;52.106;21.024;2023-08-12T04:03:50;17.30;;;6.73;;
22030;SDS011;11179;52.106;21.024;2023-08-12T04:06:15;13.43;;;5.60;;
22030;SDS011;11179;52.106;21.024;2023-08-12T04:08:41;14.90;;;6.43;;
22030;SDS011;11179;52.106;21.024;2023-08-12T04:11:06;9.90;;;5.30;;
22030;SDS011;11179;52.106;21.024;2023-08-12T04:13:31;11.27;;;5.40;;
22030;SDS011;11179;52.106;21.024;2023-08-12T04:15:57;11.57;;;5.23;;
22030;SDS011;11179;52.106;21.024;2023-08-12T04:18:22;12.90;;;6.37;;
22030;SDS011;11179;52.106;21.024;2023-08-12T04:20:51;14.63;;;5.90;;
22030;SDS011;11179;52.106;21.024;2023-08-12T04:23:17;10.83;;;5.17;;
22030;SDS011;11179;52.106;21.024;2023-08-12T04:25:44;12.93;;;5.57;;
22030;SDS011;11179;52.106;21.024;2023-08-12T04:28:13;11.50;;;5.67;;
22030;SDS011;11179;52.106;21.024;2023-08-12T04:30:44;16.00;;;6.57;;
22030;SDS011;11179;52.106;21.024;2023-08-12T04:33:12;15.03;;;6.10;;
22030;SDS011;11179;52.106;21.024;2023-08-12T04:35:38;13.80;;;6.00;;
22030;SDS011;11179;52.106;21.024;2023-08-12T04:38:04;14.50;;;6.00;;
22030;SDS011;11179;52.106;21.024;2023-08-12T04:40:30;13.33;;;6.50;;
22030;SDS011;11179;52.106;21.024;2023-08-12T04:42:55;12.93;;;7.03;;
22030;SDS011;11179;52.106;21.024;2023-08-12T04:45:20;20.50;;;7.50;;
22030;SDS011;11179;52.106;21.024;2023-08-12T04:47:46;19.73;;;6.30;;
22030;SDS011;11179;52.106;21.024;2023-08-12T04:50:12;15.37;;;7.00;;
22030;SDS011;11179;52.106;21.024;2023-08-12T04:52:37;15.50;;;7.10;;
22030;SDS011;11179;52.106;21.024;2023-08-12T04:55:02;19.03;;;7.03;;
22030;SDS011;11179;52.106;21.024;2023-08-12T04:57:29;15.80;;;7.50;;
22030;SDS011;11179;52.106;21.024;2023-08-12T04:59:54;21.70;;;8.03;;
22030;SDS011;11179;52.106;21.024;2023-08-12T05:02:20;22.27;;;8.20;;
22030;SDS011;11179;52.106;21.024;2023-08-12T05:04:48;24.00;;;8.47;;
22030;SDS011;11179;52.106;21.024;2023-08-12T05:07:16;23.40;;;8.23;;
22030;SDS011;11179;52.106;21.024;2023-08-12T05:09:42;19.40;;;8.10;;
22030;SDS011;11179;52.106;21.024;2023-08-12T05:12:09;26.23;;;9.57;;
22030;SDS011;11179;52.106;21.024;2023-08-12T05:14:35;17.43;;;7.47;;
22030;SDS011;11179;52.106;21.024;2023-08-12T05:17:00;17.27;;;8.10;;
22030;SDS011;11179;52.106;21.024;2023-08-12T05:19:25;22.33;;;7.80;;
22030;SDS011;11179;52.106;21.024;2023-08-12T05:21:50;21.93;;;7.00;;
22030;SDS011;11179;52.106;21.024;2023-08-12T05:24:16;17.40;;;7.77;;
22030;SDS011;11179;52.106;21.024;2023-08-12T05:26:41;28.23;;;8.40;;
22030;SDS011;11179;52.106;21.024;2023-08-12T05:29:07;15.17;;;7.30;;
22030;SDS011;11179;52.106;21.024;2023-08-12T05:31:32;19.97;;;7.57;;
22030;SDS011;11179;52.106;21.024;2023-08-12T05:33:57;13.50;;;6.70;;
22030;SDS011;11179;52.106;21.024;2023-08-12T05:36:23;13.47;;;6.80;;
22030;SDS011;11179;52.106;21.024;2023-08-12T05:38:48;13.30;;;6.07;;
22030;SDS011;11179;52.106;21.024;2023-08-12T05:41:13;12.40;;;6.00;;
22030;SDS011;11179;52.106;21.024;2023-08-12T05:43:39;12.73;;;5.73;;
22030;SDS011;11179;52.106;21.024;2023-08-12T05:46:04;12.67;;;6.10;;
22030;SDS011;11179;52.106;21.024;2023-08-12T05:48:29;13.00;;;5.73;;
22030;SDS011;11179;52.106;21.024;2023-08-12T05:50:54;13.40;;;5.93;;
22030;SDS011;11179;52.106;21.024;2023-08-12T05:53:21;17.37;;;6.50;;
22030;SDS011;11179;52.106;21.024;2023-08-12T05:55:47;15.63;;;5.83;;
22030;SDS011;11179;52.106;21.024;2023-08-12T05:58:12;15.93;;;5.30;;
22030;SDS011;11179;52.106;21.024;2023-08-12T06:00:37;12.57;;;5.10;;
22030;SDS011;11179;52.106;21.024;2023-08-12T06:03:03;10.93;;;4.67;;
22030;SDS011;11179;52.106;21.024;2023-08-12T06:05:28;10.00;;;4.53;;
22030;SDS011;11179;52.106;21.024;2023-08-12T06:07:54;11.43;;;5.07;;
22030;SDS011;11179;52.106;21.024;2023-08-12T06:10:19;11.83;;;4.57;;
22030;SDS011;11179;52.106;21.024;2023-08-12T06:12:44;14.33;;;4.63;;
22030;SDS011;11179;52.106;21.024;2023-08-12T06:15:10;13.23;;;4.40;;
22030;SDS011;11179;52.106;21.024;2023-08-12T06:17:35;16.43;;;5.27;;
22030;SDS011;11179;52.106;21.024;2023-08-12T06:20:01;17.20;;;4.40;;
22030;SDS011;11179;52.106;21.024;2023-08-12T06:22:26;12.60;;;4.47;;
22030;SDS011;11179;52.106;21.024;2023-08-12T06:24:51;23.57;;;3.70;;
22030;SDS011;11179;52.106;21.024;2023-08-12T06:27:17;8.77;;;3.40;;
22030;SDS011;11179;52.106;21.024;2023-08-12T06:29:44;9.00;;;3.87;;
22030;SDS011;11179;52.106;21.024;2023-08-12T06:32:09;13.80;;;4.17;;
22030;SDS011;11179;52.106;21.024;2023-08-12T06:34:37;9.20;;;4.37;;
22030;SDS011;11179;52.106;21.024;2023-08-12T06:37:03;9.43;;;4.30;;
22030;SDS011;11179;52.106;21.024;2023-08-12T06:39:28;9.30;;;3.90;;
22030;SDS011;11179;52.106;21.024;2023-08-12T06:41:53;11.67;;;4.17;;
22030;SDS011;11179;52.106;21.024;2023-08-12T06:44:20;20.33;;;4.67;;
22030;SDS011;11179;52.106;21.024;2023-08-12T06:46:46;9.10;;;3.90;;
22030;SDS011;11179;52.106;21.024;2023-08-12T06:49:11;10.03;;;3.30;;
22030;SDS011;11179;52.106;21.024;2023-08-12T06:51:37;8.90;;;3.60;;
22030;SDS011;11179;52.106;21.024;2023-08-12T06:54:02;9.10;;;3.70;;
22030;SDS011;11179;52.106;21.024;2023-08-12T06:56:28;10.17;;;3.47;;
22030;SDS011;11179;52.106;21.024;2023-08-12T06:58:53;6.80;;;2.67;;
22030;SDS011;11179;52.106;21.024;2023-08-12T07:01:18;8.27;;;2.83;;
22030;SDS011;11179;52.106;21.024;2023-08-12T07:03:44;9.50;;;3.47;;
22030;SDS011;11179;52.106;21.024;2023-08-12T07:06:09;6.70;;;2.73;;
22030;SDS011;11179;52.106;21.024;2023-08-12T07:08:34;6.80;;;2.90;;
22030;SDS011;11179;52.106;21.024;2023-08-12T07:11:00;12.97;;;3.60;;
22030;SDS011;11179;52.106;21.024;2023-08-12T07:13:25;8.10;;;3.43;;
22030;SDS011;11179;52.106;21.024;2023-08-12T07:15:50;9.03;;;3.57;;
22030;SDS011;11179;52.106;21.024;2023-08-12T07:18:16;7.00;;;2.73;;
22030;SDS011;11179;52.106;21.024;2023-08-12T07:20:41;11.03;;;2.80;;
22030;SDS011;11179;52.106;21.024;2023-08-12T07:23:07;7.47;;;2.60;;
22030;SDS011;11179;52.106;21.024;2023-08-12T07:25:32;7.60;;;2.83;;
22030;SDS011;11179;52.106;21.024;2023-08-12T07:27:57;9.17;;;2.77;;
22030;SDS011;11179;52.106;21.024;2023-08-12T07:30:23;8.63;;;3.03;;
22030;SDS011;11179;52.106;21.024;2023-08-12T07:32:56;6.33;;;2.60;;
22030;SDS011;11179;52.106;21.024;2023-08-12T07:35:23;9.20;;;2.40;;
22030;SDS011;11179;52.106;21.024;2023-08-12T07:37:49;8.57;;;2.13;;
22030;SDS011;11179;52.106;21.024;2023-08-12T07:40:14;4.80;;;1.63;;
22030;SDS011;11179;52.106;21.024;2023-08-12T07:42:39;9.70;;;2.07;;
22030;SDS011;11179;52.106;21.024;2023-08-12T07:45:05;7.00;;;2.30;;
22030;SDS011;11179;52.106;21.024;2023-08-12T07:47:31;6.10;;;2.37;;
22030;SDS011;11179;52.106;21.024;2023-08-12T07:49:56;11.93;;;2.07;;
22030;SDS011;11179;52.106;21.024;2023-08-12T07:52:21;6.63;;;2.37;;
22030;SDS011;11179;52.106;21.024;2023-08-12T07:54:46;7.30;;;2.20;;
22030;SDS011;11179;52.106;21.024;2023-08-12T07:57:12;6.60;;;2.10;;
22030;SDS011;11179;52.106;21.024;2023-08-12T07:59:37;6.57;;;2.50;;
22030;SDS011;11179;52.106;21.024;2023-08-12T08:02:02;6.63;;;2.70;;
22030;SDS011;11179;52.106;21.024;2023-08-12T08:04:28;7.73;;;2.60;;
22030;SDS011;11179;52.106;21.024;2023-08-12T08:06:53;10.90;;;2.57;;
22030;SDS011;11179;52.106;21.024;2023-08-12T08:09:18;6.53;;;2.33;;
22030;SDS011;11179;52.106;21.024;2023-08-12T08:11:44;7.40;;;2.30;;
22030;SDS011;11179;52.106;21.024;2023-08-12T08:14:09;7.10;;;2.50;;
22030;SDS011;11179;52.106;21.024;2023-08-12T08:16:34;9.90;;;2.40;;
22030;SDS011;11179;52.106;21.024;2023-08-12T08:19:00;5.57;;;1.90;;
22030;SDS011;11179;52.106;21.024;2023-08-12T08:21:25;6.20;;;2.40;;
22030;SDS011;11179;52.106;21.024;2023-08-12T08:23:51;12.07;;;2.07;;
22030;SDS011;11179;52.106;21.024;2023-08-12T08:26:16;5.67;;;2.17;;
22030;SDS011;11179;52.106;21.024;2023-08-12T08:28:42;6.73;;;2.17;;
22030;SDS011;11179;52.106;21.024;2023-08-12T08:31:07;5.50;;;1.90;;
22030;SDS011;11179;52.106;21.024;2023-08-12T08:33:34;6.83;;;2.00;;
22030;SDS011;11179;52.106;21.024;2023-08-12T08:35:59;7.23;;;2.30;;
22030;SDS011;11179;52.106;21.024;2023-08-12T08:38:24;7.67;;;2.13;;
22030;SDS011;11179;52.106;21.024;2023-08-12T08:40:50;8.47;;;2.53;;
22030;SDS011;11179;52.106;21.024;2023-08-12T08:43:17;10.47;;;2.30;;
22030;SDS011;11179;52.106;21.024;2023-08-12T08:45:45;7.43;;;2.30;;
22030;SDS011;11179;52.106;21.024;2023-08-12T08:48:11;7.03;;;2.33;;
22030;SDS011;11179;52.106;21.024;2023-08-12T08:50:37;7.03;;;2.00;;
22030;SDS011;11179;52.106;21.024;2023-08-12T08:53:02;10.50;;;2.10;;
22030;SDS011;11179;52.106;21.024;2023-08-12T08:55:31;8.23;;;2.60;;
22030;SDS011;11179;52.106;21.024;2023-08-12T08:57:56;12.93;;;2.47;;
22030;SDS011;11179;52.106;21.024;2023-08-12T09:00:22;9.33;;;2.33;;
22030;SDS011;11179;52.106;21.024;2023-08-12T09:02:47;6.00;;;2.10;;
22030;SDS011;11179;52.106;21.024;2023-08-12T09:05:15;7.47;;;2.00;;
22030;SDS011;11179;52.106;21.024;2023-08-12T09:07:41;6.70;;;2.50;;
22030;SDS011;11179;52.106;21.024;2023-08-12T09:10:08;5.77;;;2.27;;
22030;SDS011;11179;52.106;21.024;2023-08-12T09:12:36;7.10;;;2.10;;
22030;SDS011;11179;52.106;21.024;2023-08-12T09:15:01;9.27;;;2.87;;
22030;SDS011;11179;52.106;21.024;2023-08-12T09:17:29;8.93;;;2.20;;
22030;SDS011;11179;52.106;21.024;2023-08-12T09:19:55;7.43;;;2.37;;
22030;SDS011;11179;52.106;21.024;2023-08-12T09:22:20;8.20;;;2.50;;
22030;SDS011;11179;52.106;21.024;2023-08-12T09:24:50;7.13;;;2.43;;
22030;SDS011;11179;52.106;21.024;2023-08-12T09:27:17;7.83;;;2.53;;
22030;SDS011;11179;52.106;21.024;2023-08-12T09:29:43;7.57;;;2.37;;
22030;SDS011;11179;52.106;21.024;2023-08-12T09:32:11;15.43;;;2.80;;
22030;SDS011;11179;52.106;21.024;2023-08-12T09:37:16;8.37;;;2.13;;
22030;SDS011;11179;52.106;21.024;2023-08-12T09:39:43;6.83;;;1.93;;
22030;SDS011;11179;52.106;21.024;2023-08-12T09:42:10;8.23;;;2.50;;
22030;SDS011;11179;52.106;21.024;2023-08-12T09:44:36;8.83;;;2.33;;
22030;SDS011;11179;52.106;21.024;2023-08-12T09:47:05;14.17;;;3.17;;
22030;SDS011;11179;52.106;21.024;2023-08-12T09:49:31;8.30;;;1.70;;
22030;SDS011;11179;52.106;21.024;2023-08-12T09:51:57;6.57;;;2.30;;
22030;SDS011;11179;52.106;21.024;2023-08-12T09:54:22;8.83;;;2.10;;
22030;SDS011;11179;52.106;21.024;2023-08-12T09:56:52;9.67;;;2.53;;
22030;SDS011;11179;52.106;21.024;2023-08-12T09:59:22;7.17;;;2.80;;
22030;SDS011;11179;52.106;21.024;2023-08-12T10:01:49;7.70;;;2.33;;
22030;SDS011;11179;52.106;21.024;2023-08-12T10:04:22;8.73;;;2.43;;
22030;SDS011;11179;52.106;21.024;2023-08-12T10:06:50;6.30;;;2.67;;
22030;SDS011;11179;52.106;21.024;2023-08-12T10:09:16;11.10;;;2.30;;
22030;SDS011;11179;52.106;21.024;2023-08-12T10:11:42;11.03;;;2.80;;
22030;SDS011;11179;52.106;21.024;2023-08-12T10:14:09;7.43;;;2.23;;
22030;SDS011;11179;52.106;21.024;2023-08-12T10:16:35;9.00;;;2.77;;
22030;SDS011;11179;52.106;21.024;2023-08-12T10:19:01;9.90;;;2.47;;
22030;SDS011;11179;52.106;21.024;2023-08-12T10:21:29;6.83;;;2.20;;
22030;SDS011;11179;52.106;21.024;2023-08-12T10:23:54;18.63;;;2.67;;
22030;SDS011;11179;52.106;21.024;2023-08-12T10:26:23;16.67;;;2.77;;
22030;SDS011;11179;52.106;21.024;2023-08-12T10:28:49;8.60;;;2.37;;
22030;SDS011;11179;52.106;21.024;2023-08-12T10:31:15;7.30;;;2.20;;
22030;SDS011;11179;52.106;21.024;2023-08-12T10:33:41;14.63;;;2.20;;
22030;SDS011;11179;52.106;21.024;2023-08-12T10:36:07;6.97;;;2.13;;
22030;SDS011;11179;52.106;21.024;2023-08-12T10:38:33;5.80;;;2.00;;
22030;SDS011;11179;52.106;21.024;2023-08-12T10:43:54;7.37;;;2.20;;
22030;SDS011;11179;52.106;21.024;2023-08-12T10:46:22;9.33;;;2.40;;
22030;SDS011;11179;52.106;21.024;2023-08-12T10:48:55;6.93;;;1.87;;
22030;SDS011;11179;52.106;21.024;2023-08-12T10:51:38;13.30;;;2.70;;
22030;SDS011;11179;52.106;21.024;2023-08-12T11:04:55;9.43;;;2.30;;
22030;SDS011;11179;52.106;21.024;2023-08-12T11:07:23;6.80;;;2.10;;
22030;SDS011;11179;52.106;21.024;2023-08-12T11:09:54;7.80;;;2.13;;
22030;SDS011;11179;52.106;21.024;2023-08-12T11:12:29;14.40;;;2.50;;
22030;SDS011;11179;52.106;21.024;2023-08-12T11:14:57;6.73;;;2.00;;
22030;SDS011;11179;52.106;21.024;2023-08-12T11:17:33;9.10;;;2.63;;
22030;SDS011;11179;52.106;21.024;2023-08-12T11:20:00;6.87;;;2.20;;
22030;SDS011;11179;52.106;21.024;2023-08-12T11:22:29;5.63;;;2.33;;
22030;SDS011;11179;52.106;21.024;2023-08-12T11:24:55;8.93;;;1.90;;
22030;SDS011;11179;52.106;21.024;2023-08-12T11:27:21;7.20;;;2.27;;
22030;SDS011;11179;52.106;21.024;2023-08-12T11:29:48;7.73;;;2.07;;
22030;SDS011;11179;52.106;21.024;2023-08-12T11:32:15;6.23;;;2.33;;
22030;SDS011;11179;52.106;21.024;2023-08-12T11:34:41;7.50;;;2.37;;
22030;SDS011;11179;52.106;21.024;2023-08-12T11:37:06;7.93;;;2.37;;
22030;SDS011;11179;52.106;21.024;2023-08-12T11:39:31;8.73;;;1.93;;
22030;SDS011;11179;52.106;21.024;2023-08-12T11:41:57;9.13;;;2.33;;
22030;SDS011;11179;52.106;21.024;2023-08-12T11:44:23;7.10;;;2.10;;
22030;SDS011;11179;52.106;21.024;2023-08-12T11:46:49;7.07;;;2.40;;
22030;SDS011;11179;52.106;21.024;2023-08-12T11:49:14;8.43;;;1.73;;
22030;SDS011;11179;52.106;21.024;2023-08-12T11:51:40;6.30;;;1.90;;
22030;SDS011;11179;52.106;21.024;2023-08-12T11:54:07;9.70;;;2.20;;
22030;SDS011;11179;52.106;21.024;2023-08-12T11:56:32;9.00;;;2.33;;
22030;SDS011;11179;52.106;21.024;2023-08-12T11:58:58;8.43;;;2.33;;
22030;SDS011;11179;52.106;21.024;2023-08-12T12:01:24;6.80;;;1.83;;
22030;SDS011;11179;52.106;21.024;2023-08-12T12:03:52;6.20;;;2.00;;
22030;SDS011;11179;52.106;21.024;2023-08-12T12:06:18;7.40;;;2.13;;
22030;SDS011;11179;52.106;21.024;2023-08-12T12:09:05;6.70;;;2.03;;
22030;SDS011;11179;52.106;21.024;2023-08-12T12:11:34;5.83;;;2.23;;
22030;SDS011;11179;52.106;21.024;2023-08-12T12:14:02;7.30;;;2.13;;
22030;SDS011;11179;52.106;21.024;2023-08-12T12:16:41;8.63;;;2.20;;
22030;SDS011;11179;52.106;21.024;2023-08-12T12:19:21;8.40;;;1.90;;
22030;SDS011;11179;52.106;21.024;2023-08-12T12:21:48;7.00;;;2.27;;
22030;SDS011;11179;52.106;21.024;2023-08-12T12:24:15;11.40;;;1.93;;
22030;SDS011;11179;52.106;21.024;2023-08-12T12:26:41;5.37;;;2.10;;
22030;SDS011;11179;52.106;21.024;2023-08-12T12:29:07;7.77;;;2.10;;
22030;SDS011;11179;52.106;21.024;2023-08-12T12:31:33;6.07;;;2.17;;
22030;SDS011;11179;52.106;21.024;2023-08-12T12:34:00;6.63;;;2.20;;
22030;SDS011;11179;52.106;21.024;2023-08-12T12:36:26;14.50;;;2.60;;
22030;SDS011;11179;52.106;21.024;2023-08-12T12:38:51;10.37;;;2.40;;
22030;SDS011;11179;52.106;21.024;2023-08-12T12:41:17;9.20;;;2.50;;
22030;SDS011;11179;52.106;21.024;2023-08-12T12:43:42;11.20;;;2.70;;
22030;SDS011;11179;52.106;21.024;2023-08-12T12:46:07;6.77;;;2.50;;
22030;SDS011;11179;52.106;21.024;2023-08-12T12:48:33;8.50;;;3.40;;
22030;SDS011;11179;52.106;21.024;2023-08-12T12:50:59;7.13;;;2.30;;
22030;SDS011;11179;52.106;21.024;2023-08-12T12:53:24;7.27;;;1.90;;
22030;SDS011;11179;52.106;21.024;2023-08-12T12:55:49;6.00;;;1.93;;
22030;SDS011;11179;52.106;21.024;2023-08-12T12:58:15;6.17;;;1.90;;
22030;SDS011;11179;52.106;21.024;2023-08-12T13:00:41;7.50;;;2.30;;
22030;SDS011;11179;52.106;21.024;2023-08-12T13:03:06;7.03;;;2.13;;
22030;SDS011;11179;52.106;21.024;2023-08-12T13:05:32;6.63;;;2.70;;
22030;SDS011;11179;52.106;21.024;2023-08-12T13:07:57;9.60;;;2.30;;
22030;SDS011;11179;52.106;21.024;2023-08-12T13:10:22;7.40;;;2.00;;
22030;SDS011;11179;52.106;21.024;2023-08-12T13:12:47;9.73;;;2.50;;
22030;SDS011;11179;52.106;21.024;2023-08-12T13:15:13;7.43;;;3.40;;
22030;SDS011;11179;52.106;21.024;2023-08-12T13:17:38;12.80;;;6.23;;
22030;SDS011;11179;52.106;21.024;2023-08-12T13:20:03;7.13;;;2.50;;
22030;SDS011;11179;52.106;21.024;2023-08-12T13:22:30;6.33;;;1.90;;
22030;SDS011;11179;52.106;21.024;2023-08-12T13:24:55;7.33;;;2.00;;
22030;SDS011;11179;52.106;21.024;2023-08-12T13:27:21;12.23;;;2.67;;
22030;SDS011;11179;52.106;21.024;2023-08-12T13:29:46;8.27;;;2.13;;
22030;SDS011;11179;52.106;21.024;2023-08-12T13:32:11;6.53;;;2.50;;
22030;SDS011;11179;52.106;21.024;2023-08-12T13:34:36;7.47;;;2.00;;
22030;SDS011;11179;52.106;21.024;2023-08-12T13:37:02;7.00;;;2.33;;
22030;SDS011;11179;52.106;21.024;2023-08-12T13:39:27;13.53;;;5.47;;
22030;SDS011;11179;52.106;21.024;2023-08-12T13:41:53;5.17;;;2.07;;
22030;SDS011;11179;52.106;21.024;2023-08-12T13:44:19;13.70;;;3.37;;
22030;SDS011;11179;52.106;21.024;2023-08-12T13:46:45;6.80;;;2.93;;
22030;SDS011;11179;52.106;21.024;2023-08-12T13:49:10;9.13;;;2.20;;
22030;SDS011;11179;52.106;21.024;2023-08-12T13:51:36;7.60;;;2.30;;
22030;SDS011;11179;52.106;21.024;2023-08-12T13:54:02;7.03;;;2.67;;
22030;SDS011;11179;52.106;21.024;2023-08-12T13:56:27;10.73;;;2.27;;
22030;SDS011;11179;52.106;21.024;2023-08-12T13:58:52;4.40;;;1.70;;
22030;SDS011;11179;52.106;21.024;2023-08-12T14:01:18;8.83;;;2.00;;
22030;SDS011;11179;52.106;21.024;2023-08-12T14:03:43;11.20;;;2.80;;
22030;SDS011;11179;52.106;21.024;2023-08-12T14:06:08;9.67;;;2.13;;
22030;SDS011;11179;52.106;21.024;2023-08-12T14:08:34;6.10;;;2.43;;
22030;SDS011;11179;52.106;21.024;2023-08-12T14:10:59;6.93;;;1.97;;
22030;SDS011;11179;52.106;21.024;2023-08-12T14:13:25;5.23;;;1.90;;
22030;SDS011;11179;52.106;21.024;2023-08-12T14:15:50;7.13;;;2.20;;
22030;SDS011;11179;52.106;21.024;2023-08-12T14:18:15;8.53;;;2.07;;
22030;SDS011;11179;52.106;21.024;2023-08-12T14:20:41;7.10;;;2.00;;
22030;SDS011;11179;52.106;21.024;2023-08-12T14:23:06;9.33;;;2.80;;
22030;SDS011;11179;52.106;21.024;2023-08-12T14:25:31;6.40;;;1.93;;
22030;SDS011;11179;52.106;21.024;2023-08-12T14:27:56;7.50;;;2.53;;
22030;SDS011;11179;52.106;21.024;2023-08-12T14:30:25;6.40;;;1.97;;
22030;SDS011;11179;52.106;21.024;2023-08-12T14:32:51;6.70;;;2.07;;
22030;SDS011;11179;52.106;21.024;2023-08-12T14:35:16;6.30;;;2.10;;
22030;SDS011;11179;52.106;21.024;2023-08-12T14:37:42;12.40;;;2.53;;
22030;SDS011;11179;52.106;21.024;2023-08-12T14:40:07;10.60;;;2.50;;